sensor_id;sensor_type;location;lat;lon;timestamp;pressure;altitude;pressure_sealevel;temperature;humidity
1736;BME280;865;53.672;10.250;2023-07-30T00:00:43;99906.06;;;16.01;100.00
1736;BME280;865;53.672;10.250;2023-07-30T00:03:10;99901.31;;;15.91;100.00
1736;BME280;865;53.672;10.250;2023-07-30T00:05:36;99898.75;;;15.90;100.00
1736;BME280;865;53.672;10.250;2023-07-30T00:08:03;99897.13;;;15.87;100.00
1736;BME280;865;53.672;10.250;2023-07-30T00:10:31;99887.72;;;15.99;100.00
1736;BME280;865;53.672;10.250;2023-07-30T00:12:57;99888.38;;;16.03;100.00
1736;BME280;865;53.672;10.250;2023-07-30T00:15:24;99888.72;;;15.97;100.00
1736;BME280;865;53.672;10.250;2023-07-30T00:17:50;99883.47;;;15.97;100.00
1736;BME280;865;53.672;10.250;2023-07-30T00:20:17;99886.09;;;15.97;100.00
1736;BME280;865;53.672;10.250;2023-07-30T00:22:43;99875.84;;;15.92;100.00
1736;BME280;865;53.672;10.250;2023-07-30T00:25:10;99880.59;;;15.85;100.00
1736;BME280;865;53.672;10.250;2023-07-30T00:27:36;99880.28;;;15.91;100.00
1736;BME280;865;53.672;10.250;2023-07-30T00:30:03;99880.00;;;15.96;100.00
1736;BME280;865;53.672;10.250;2023-07-30T00:32:30;99879.97;;;16.12;100.00
1736;BME280;865;53.672;10.250;2023-07-30T00:34:57;99880.16;;;16.09;100.00
1736;BME280;865;53.672;10.250;2023-07-30T00:37:23;99881.38;;;16.03;100.00
1736;BME280;865;53.672;10.250;2023-07-30T00:39:50;99873.63;;;16.00;100.00
1736;BME280;865;53.672;10.250;2023-07-30T00:42:16;99880.41;;;16.04;100.00
1736;BME280;865;53.672;10.250;2023-07-30T00:44:42;99888.06;;;15.93;100.00
1736;BME280;865;53.672;10.250;2023-07-30T00:47:09;99878.56;;;15.90;100.00
1736;BME280;865;53.672;10.250;2023-07-30T00:49:35;99886.38;;;15.92;100.00
1736;BME280;865;53.672;10.250;2023-07-30T00:52:03;99882.03;;;15.91;100.00
1736;BME280;865;53.672;10.250;2023-07-30T00:54:30;99878.28;;;15.79;100.00
1736;BME280;865;53.672;10.250;2023-07-30T00:56:56;99875.59;;;15.81;100.00
1736;BME280;865;53.672;10.250;2023-07-30T00:59:23;99867.69;;;15.81;100.00
1736;BME280;865;53.672;10.250;2023-07-30T01:01:51;99870.56;;;15.76;100.00
1736;BME280;865;53.672;10.250;2023-07-30T01:04:18;99873.19;;;15.76;100.00
1736;BME280;865;53.672;10.250;2023-07-30T01:06:45;99860.66;;;15.81;100.00
1736;BME280;865;53.672;10.250;2023-07-30T01:09:12;99846.84;;;15.78;100.00
1736;BME280;865;53.672;10.250;2023-07-30T01:11:39;99855.84;;;15.74;100.00
1736;BME280;865;53.672;10.250;2023-07-30T01:14:07;99840.13;;;15.72;100.00
1736;BME280;865;53.672;10.250;2023-07-30T01:16:35;99819.88;;;15.74;100.00
1736;BME280;865;53.672;10.250;2023-07-30T01:19:03;99831.06;;;15.78;100.00
1736;BME280;865;53.672;10.250;2023-07-30T01:21:32;99835.13;;;15.83;100.00
1736;BME280;865;53.672;10.250;2023-07-30T01:23:59;99833.41;;;15.82;100.00
1736;BME280;865;53.672;10.250;2023-07-30T01:26:31;99829.59;;;15.88;100.00
1736;BME280;865;53.672;10.250;2023-07-30T01:29:00;99832.69;;;15.80;100.00
1736;BME280;865;53.672;10.250;2023-07-30T01:31:30;99828.25;;;15.65;100.00
1736;BME280;865;53.672;10.250;2023-07-30T01:33:59;99832.91;;;15.60;100.00
1736;BME280;865;53.672;10.250;2023-07-30T01:36:27;99842.94;;;15.69;100.00
1736;BME280;865;53.672;10.250;2023-07-30T01:38:56;99849.28;;;15.81;100.00
1736;BME280;865;53.672;10.250;2023-07-30T01:41:23;99859.16;;;15.77;100.00
1736;BME280;865;53.672;10.250;2023-07-30T01:43:50;99861.00;;;15.75;100.00
1736;BME280;865;53.672;10.250;2023-07-30T01:46:17;99858.38;;;15.75;100.00
1736;BME280;865;53.672;10.250;2023-07-30T01:48:43;99857.69;;;15.71;100.00
1736;BME280;865;53.672;10.250;2023-07-30T01:51:10;99856.69;;;15.74;100.00
1736;BME280;865;53.672;10.250;2023-07-30T01:53:36;99861.66;;;15.63;100.00
1736;BME280;865;53.672;10.250;2023-07-30T01:56:03;99856.91;;;15.54;100.00
1736;BME280;865;53.672;10.250;2023-07-30T01:58:29;99868.59;;;15.48;100.00
1736;BME280;865;53.672;10.250;2023-07-30T02:00:56;99878.84;;;15.53;100.00
1736;BME280;865;53.672;10.250;2023-07-30T02:03:22;99883.84;;;15.41;100.00
1736;BME280;865;53.672;10.250;2023-07-30T02:05:49;99885.88;;;15.36;100.00
1736;BME280;865;53.672;10.250;2023-07-30T02:08:16;99887.13;;;15.29;100.00
1736;BME280;865;53.672;10.250;2023-07-30T02:10:42;99876.63;;;15.29;100.00
1736;BME280;865;53.672;10.250;2023-07-30T02:13:09;99878.19;;;15.16;100.00
1736;BME280;865;53.672;10.250;2023-07-30T02:15:40;99865.66;;;15.21;100.00
1736;BME280;865;53.672;10.250;2023-07-30T02:18:06;99868.28;;;15.21;100.00
1736;BME280;865;53.672;10.250;2023-07-30T02:20:32;99859.63;;;15.19;100.00
1736;BME280;865;53.672;10.250;2023-07-30T02:22:59;99855.31;;;15.18;100.00
1736;BME280;865;53.672;10.250;2023-07-30T02:25:25;99855.22;;;15.19;100.00
1736;BME280;865;53.672;10.250;2023-07-30T02:27:52;99865.72;;;15.19;100.00
1736;BME280;865;53.672;10.250;2023-07-30T02:30:18;99859.28;;;15.25;100.00
1736;BME280;865;53.672;10.250;2023-07-30T02:32:45;99862.69;;;15.27;100.00
1736;BME280;865;53.672;10.250;2023-07-30T02:35:11;99868.13;;;15.24;100.00
1736;BME280;865;53.672;10.250;2023-07-30T02:37:38;99866.50;;;15.21;100.00
1736;BME280;865;53.672;10.250;2023-07-30T02:40:05;99877.66;;;15.09;100.00
1736;BME280;865;53.672;10.250;2023-07-30T02:42:31;99872.78;;;15.01;100.00
1736;BME280;865;53.672;10.250;2023-07-30T02:44:58;99879.44;;;15.09;100.00
1736;BME280;865;53.672;10.250;2023-07-30T02:47:24;99884.44;;;15.13;100.00
1736;BME280;865;53.672;10.250;2023-07-30T02:49:51;99890.22;;;15.20;100.00
1736;BME280;865;53.672;10.250;2023-07-30T02:52:17;99896.56;;;15.16;100.00
1736;BME280;865;53.672;10.250;2023-07-30T02:54:44;99894.59;;;15.03;100.00
1736;BME280;865;53.672;10.250;2023-07-30T02:57:10;99892.47;;;15.10;100.00
1736;BME280;865;53.672;10.250;2023-07-30T02:59:37;99893.13;;;14.98;100.00
1736;BME280;865;53.672;10.250;2023-07-30T03:02:04;99896.44;;;15.01;100.00
1736;BME280;865;53.672;10.250;2023-07-30T03:04:34;99892.03;;;15.02;100.00
1736;BME280;865;53.672;10.250;2023-07-30T03:07:00;99898.69;;;15.09;100.00
1736;BME280;865;53.672;10.250;2023-07-30T03:09:27;99897.44;;;14.99;100.00
1736;BME280;865;53.672;10.250;2023-07-30T03:11:54;99895.06;;;14.94;100.00
1736;BME280;865;53.672;10.250;2023-07-30T03:14:20;99891.59;;;14.94;100.00
1736;BME280;865;53.672;10.250;2023-07-30T03:16:47;99901.41;;;14.90;100.00
1736;BME280;865;53.672;10.250;2023-07-30T03:19:15;99905.63;;;14.93;100.00
1736;BME280;865;53.672;10.250;2023-07-30T03:21:41;99908.50;;;14.88;100.00
1736;BME280;865;53.672;10.250;2023-07-30T03:24:08;99903.25;;;14.88;100.00
1736;BME280;865;53.672;10.250;2023-07-30T03:26:34;99915.91;;;14.80;100.00
1736;BME280;865;53.672;10.250;2023-07-30T03:29:01;99912.50;;;14.78;100.00
1736;BME280;865;53.672;10.250;2023-07-30T03:31:28;99916.91;;;14.77;100.00
1736;BME280;865;53.672;10.250;2023-07-30T03:33:54;99922.25;;;14.76;100.00
1736;BME280;865;53.672;10.250;2023-07-30T03:36:21;99919.31;;;14.82;100.00
1736;BME280;865;53.672;10.250;2023-07-30T03:38:48;99921.00;;;14.83;100.00
1736;BME280;865;53.672;10.250;2023-07-30T03:41:14;99920.69;;;14.72;100.00
1736;BME280;865;53.672;10.250;2023-07-30T03:43:41;99920.47;;;14.76;100.00
1736;BME280;865;53.672;10.250;2023-07-30T03:46:07;99931.28;;;14.70;100.00
1736;BME280;865;53.672;10.250;2023-07-30T03:48:34;99932.28;;;14.68;100.00
1736;BME280;865;53.672;10.250;2023-07-30T03:51:00;99932.91;;;14.73;100.00
1736;BME280;865;53.672;10.250;2023-07-30T03:53:27;99933.66;;;14.75;100.00
1736;BME280;865;53.672;10.250;2023-07-30T03:55:53;99954.63;;;14.76;100.00
1736;BME280;865;53.672;10.250;2023-07-30T03:58:20;99953.81;;;14.74;100.00
1736;BME280;865;53.672;10.250;2023-07-30T04:00:46;99956.59;;;14.71;100.00
1736;BME280;865;53.672;10.250;2023-07-30T04:03:13;99965.75;;;14.81;100.00
1736;BME280;865;53.672;10.250;2023-07-30T04:05:39;99962.88;;;14.86;100.00
1736;BME280;865;53.672;10.250;2023-07-30T04:08:06;99969.28;;;14.80;100.00
1736;BME280;865;53.672;10.250;2023-07-30T04:10:32;99972.84;;;14.79;100.00
1736;BME280;865;53.672;10.250;2023-07-30T04:12:59;99976.41;;;14.78;100.00
1736;BME280;865;53.672;10.250;2023-07-30T04:15:26;99982.00;;;14.71;100.00
1736;BME280;865;53.672;10.250;2023-07-30T04:17:53;99973.34;;;14.69;100.00
1736;BME280;865;53.672;10.250;2023-07-30T04:20:20;99969.72;;;14.71;100.00
1736;BME280;865;53.672;10.250;2023-07-30T04:22:46;99980.94;;;14.75;100.00
1736;BME280;865;53.672;10.250;2023-07-30T04:25:13;99976.47;;;14.77;100.00
1736;BME280;865;53.672;10.250;2023-07-30T04:27:39;99967.19;;;14.70;100.00
1736;BME280;865;53.672;10.250;2023-07-30T04:30:06;99974.00;;;14.74;100.00
1736;BME280;865;53.672;10.250;2023-07-30T04:32:33;99976.56;;;14.75;100.00
1736;BME280;865;53.672;10.250;2023-07-30T04:35:01;99969.44;;;14.77;100.00
1736;BME280;865;53.672;10.250;2023-07-30T04:37:29;99959.31;;;14.87;100.00
1736;BME280;865;53.672;10.250;2023-07-30T04:39:56;99961.66;;;14.93;100.00
1736;BME280;865;53.672;10.250;2023-07-30T04:42:22;99960.72;;;14.94;100.00
1736;BME280;865;53.672;10.250;2023-07-30T04:44:49;99953.22;;;15.04;100.00
1736;BME280;865;53.672;10.250;2023-07-30T04:47:15;99955.38;;;15.13;100.00
1736;BME280;865;53.672;10.250;2023-07-30T04:49:42;99955.44;;;15.29;100.00
1736;BME280;865;53.672;10.250;2023-07-30T04:52:10;99959.59;;;15.33;100.00
1736;BME280;865;53.672;10.250;2023-07-30T04:54:36;99965.22;;;15.43;100.00
1736;BME280;865;53.672;10.250;2023-07-30T04:57:04;99962.59;;;15.43;100.00
1736;BME280;865;53.672;10.250;2023-07-30T04:59:30;99973.25;;;15.57;100.00
1736;BME280;865;53.672;10.250;2023-07-30T05:01:57;99982.22;;;15.70;100.00
1736;BME280;865;53.672;10.250;2023-07-30T05:04:24;99974.75;;;15.79;100.00
1736;BME280;865;53.672;10.250;2023-07-30T05:06:50;99982.41;;;15.83;100.00
1736;BME280;865;53.672;10.250;2023-07-30T05:09:16;99984.03;;;16.02;100.00
1736;BME280;865;53.672;10.250;2023-07-30T05:11:43;99992.31;;;16.27;100.00
1736;BME280;865;53.672;10.250;2023-07-30T05:14:09;99997.56;;;16.27;100.00
1736;BME280;865;53.672;10.250;2023-07-30T05:16:36;99999.41;;;16.41;100.00
1736;BME280;865;53.672;10.250;2023-07-30T05:19:04;100008.06;;;16.59;100.00
1736;BME280;865;53.672;10.250;2023-07-30T05:21:31;100010.75;;;16.73;100.00
1736;BME280;865;53.672;10.250;2023-07-30T05:23:57;100022.00;;;17.07;100.00
1736;BME280;865;53.672;10.250;2023-07-30T05:26:23;100035.66;;;17.29;100.00
1736;BME280;865;53.672;10.250;2023-07-30T05:28:50;100048.78;;;17.15;100.00
1736;BME280;865;53.672;10.250;2023-07-30T05:31:16;100056.81;;;16.98;100.00
1736;BME280;865;53.672;10.250;2023-07-30T05:33:43;100060.47;;;16.95;100.00
1736;BME280;865;53.672;10.250;2023-07-30T05:36:09;100061.53;;;17.07;100.00
1736;BME280;865;53.672;10.250;2023-07-30T05:38:36;100066.75;;;17.08;100.00
1736;BME280;865;53.672;10.250;2023-07-30T05:41:02;100074.34;;;16.99;100.00
1736;BME280;865;53.672;10.250;2023-07-30T05:43:28;100070.09;;;16.96;100.00
1736;BME280;865;53.672;10.250;2023-07-30T05:45:55;100065.91;;;17.08;100.00
1736;BME280;865;53.672;10.250;2023-07-30T05:48:21;100078.06;;;17.11;100.00
1736;BME280;865;53.672;10.250;2023-07-30T05:50:48;100076.50;;;17.22;100.00
1736;BME280;865;53.672;10.250;2023-07-30T05:53:15;100082.63;;;17.23;100.00
1736;BME280;865;53.672;10.250;2023-07-30T05:55:41;100080.81;;;17.23;100.00
1736;BME280;865;53.672;10.250;2023-07-30T05:58:08;100080.69;;;17.41;100.00
1736;BME280;865;53.672;10.250;2023-07-30T06:00:34;100086.94;;;17.24;100.00
1736;BME280;865;53.672;10.250;2023-07-30T06:03:01;100079.91;;;17.39;100.00
1736;BME280;865;53.672;10.250;2023-07-30T06:05:28;100091.28;;;17.69;100.00
1736;BME280;865;53.672;10.250;2023-07-30T06:07:54;100096.66;;;17.68;100.00
1736;BME280;865;53.672;10.250;2023-07-30T06:10:20;100103.56;;;17.70;100.00
1736;BME280;865;53.672;10.250;2023-07-30T06:12:47;100105.34;;;17.70;100.00
1736;BME280;865;53.672;10.250;2023-07-30T06:15:13;100113.97;;;17.58;100.00
1736;BME280;865;53.672;10.250;2023-07-30T06:17:39;100118.84;;;17.49;100.00
1736;BME280;865;53.672;10.250;2023-07-30T06:20:07;100134.50;;;17.52;100.00
1736;BME280;865;53.672;10.250;2023-07-30T06:22:33;100130.84;;;17.55;100.00
1736;BME280;865;53.672;10.250;2023-07-30T06:25:00;100135.28;;;17.39;100.00
1736;BME280;865;53.672;10.250;2023-07-30T06:27:26;100140.22;;;17.45;100.00
1736;BME280;865;53.672;10.250;2023-07-30T06:29:53;100135.28;;;17.39;100.00
1736;BME280;865;53.672;10.250;2023-07-30T06:32:20;100125.91;;;17.49;100.00
1736;BME280;865;53.672;10.250;2023-07-30T06:34:46;100127.97;;;17.44;100.00
1736;BME280;865;53.672;10.250;2023-07-30T06:37:13;100134.81;;;17.62;100.00
1736;BME280;865;53.672;10.250;2023-07-30T06:39:39;100131.91;;;17.67;100.00
1736;BME280;865;53.672;10.250;2023-07-30T06:42:06;100121.03;;;17.57;100.00
1736;BME280;865;53.672;10.250;2023-07-30T06:44:33;100125.59;;;17.39;100.00
1736;BME280;865;53.672;10.250;2023-07-30T06:46:59;100124.22;;;17.48;100.00
1736;BME280;865;53.672;10.250;2023-07-30T06:49:26;100118.34;;;17.43;100.00
1736;BME280;865;53.672;10.250;2023-07-30T06:51:53;100132.59;;;17.54;100.00
1736;BME280;865;53.672;10.250;2023-07-30T06:54:20;100133.25;;;17.44;100.00
1736;BME280;865;53.672;10.250;2023-07-30T06:56:46;100123.94;;;17.52;100.00
1736;BME280;865;53.672;10.250;2023-07-30T06:59:13;100132.16;;;17.62;100.00
1736;BME280;865;53.672;10.250;2023-07-30T07:01:39;100121.06;;;17.71;100.00
1736;BME280;865;53.672;10.250;2023-07-30T07:04:06;100130.47;;;17.91;100.00
1736;BME280;865;53.672;10.250;2023-07-30T07:06:33;100144.81;;;17.41;100.00
1736;BME280;865;53.672;10.250;2023-07-30T07:08:59;100139.25;;;17.46;100.00
1736;BME280;865;53.672;10.250;2023-07-30T07:11:26;100143.63;;;17.47;100.00
1736;BME280;865;53.672;10.250;2023-07-30T07:13:52;100134.69;;;17.49;100.00
1736;BME280;865;53.672;10.250;2023-07-30T07:16:19;100147.94;;;17.48;100.00
1736;BME280;865;53.672;10.250;2023-07-30T07:18:45;100152.72;;;17.41;100.00
1736;BME280;865;53.672;10.250;2023-07-30T07:21:11;100158.28;;;17.67;100.00
1736;BME280;865;53.672;10.250;2023-07-30T07:23:38;100154.63;;;17.99;100.00
1736;BME280;865;53.672;10.250;2023-07-30T07:26:04;100168.94;;;18.10;100.00
1736;BME280;865;53.672;10.250;2023-07-30T07:28:31;100172.34;;;18.12;100.00
1736;BME280;865;53.672;10.250;2023-07-30T07:30:57;100182.22;;;18.08;100.00
1736;BME280;865;53.672;10.250;2023-07-30T07:33:24;100186.91;;;17.89;100.00
1736;BME280;865;53.672;10.250;2023-07-30T07:35:50;100189.31;;;18.08;100.00
1736;BME280;865;53.672;10.250;2023-07-30T07:38:17;100191.28;;;18.04;100.00
1736;BME280;865;53.672;10.250;2023-07-30T07:40:43;100201.38;;;18.26;100.00
1736;BME280;865;53.672;10.250;2023-07-30T07:43:10;100203.41;;;18.37;100.00
1736;BME280;865;53.672;10.250;2023-07-30T07:45:36;100209.25;;;18.56;100.00
1736;BME280;865;53.672;10.250;2023-07-30T07:48:02;100220.38;;;18.47;100.00
1736;BME280;865;53.672;10.250;2023-07-30T07:50:29;100223.88;;;18.62;100.00
1736;BME280;865;53.672;10.250;2023-07-30T07:52:56;100225.56;;;18.92;100.00
1736;BME280;865;53.672;10.250;2023-07-30T07:55:22;100243.78;;;18.67;100.00
1736;BME280;865;53.672;10.250;2023-07-30T07:57:49;100242.13;;;18.95;100.00
1736;BME280;865;53.672;10.250;2023-07-30T08:00:17;100243.88;;;18.95;100.00
1736;BME280;865;53.672;10.250;2023-07-30T08:02:44;100236.97;;;19.06;100.00
1736;BME280;865;53.672;10.250;2023-07-30T08:05:10;100241.81;;;19.00;100.00
1736;BME280;865;53.672;10.250;2023-07-30T08:07:37;100237.94;;;18.77;100.00
1736;BME280;865;53.672;10.250;2023-07-30T08:10:03;100240.53;;;18.78;100.00
1736;BME280;865;53.672;10.250;2023-07-30T08:12:31;100236.34;;;18.88;100.00
1736;BME280;865;53.672;10.250;2023-07-30T08:15:00;100238.97;;;19.17;100.00
1736;BME280;865;53.672;10.250;2023-07-30T08:17:26;100236.06;;;18.93;100.00
1736;BME280;865;53.672;10.250;2023-07-30T08:19:53;100239.72;;;19.19;100.00
1736;BME280;865;53.672;10.250;2023-07-30T08:22:19;100237.66;;;19.51;100.00
1736;BME280;865;53.672;10.250;2023-07-30T08:24:45;100239.81;;;19.45;100.00
1736;BME280;865;53.672;10.250;2023-07-30T08:27:12;100249.50;;;19.31;100.00
1736;BME280;865;53.672;10.250;2023-07-30T08:29:38;100258.69;;;19.11;100.00
1736;BME280;865;53.672;10.250;2023-07-30T08:32:05;100247.81;;;19.30;100.00
1736;BME280;865;53.672;10.250;2023-07-30T08:34:32;100251.44;;;19.42;100.00
1736;BME280;865;53.672;10.250;2023-07-30T08:36:58;100260.38;;;19.54;100.00
1736;BME280;865;53.672;10.250;2023-07-30T08:39:24;100258.09;;;19.62;100.00
1736;BME280;865;53.672;10.250;2023-07-30T08:41:51;100261.56;;;19.77;100.00
1736;BME280;865;53.672;10.250;2023-07-30T08:44:18;100264.88;;;19.80;100.00
1736;BME280;865;53.672;10.250;2023-07-30T08:46:44;100262.69;;;19.87;100.00
1736;BME280;865;53.672;10.250;2023-07-30T08:49:10;100261.25;;;20.09;100.00
1736;BME280;865;53.672;10.250;2023-07-30T08:51:38;100270.69;;;19.73;100.00
1736;BME280;865;53.672;10.250;2023-07-30T08:54:34;100275.63;;;20.04;100.00
1736;BME280;865;53.672;10.250;2023-07-30T08:57:01;100281.81;;;20.18;100.00
1736;BME280;865;53.672;10.250;2023-07-30T08:59:33;100275.88;;;20.14;100.00
1736;BME280;865;53.672;10.250;2023-07-30T09:02:00;100283.78;;;20.01;100.00
1736;BME280;865;53.672;10.250;2023-07-30T09:04:29;100283.34;;;20.08;100.00
1736;BME280;865;53.672;10.250;2023-07-30T09:07:00;100286.28;;;20.30;100.00
1736;BME280;865;53.672;10.250;2023-07-30T09:09:27;100287.75;;;20.34;100.00
1736;BME280;865;53.672;10.250;2023-07-30T09:11:55;100291.50;;;20.32;100.00
1736;BME280;865;53.672;10.250;2023-07-30T09:14:21;100292.38;;;20.58;100.00
1736;BME280;865;53.672;10.250;2023-07-30T09:16:48;100292.03;;;20.49;100.00
1736;BME280;865;53.672;10.250;2023-07-30T09:19:17;100311.28;;;20.26;100.00
1736;BME280;865;53.672;10.250;2023-07-30T09:21:45;100306.63;;;20.30;100.00
1736;BME280;865;53.672;10.250;2023-07-30T09:24:11;100316.34;;;20.16;100.00
1736;BME280;865;53.672;10.250;2023-07-30T09:26:45;100325.16;;;19.90;100.00
1736;BME280;865;53.672;10.250;2023-07-30T09:29:12;100326.78;;;19.78;100.00
1736;BME280;865;53.672;10.250;2023-07-30T09:31:47;100314.41;;;20.06;100.00
1736;BME280;865;53.672;10.250;2023-07-30T09:34:17;100313.25;;;20.10;100.00
1736;BME280;865;53.672;10.250;2023-07-30T09:36:45;100318.28;;;20.27;100.00
1736;BME280;865;53.672;10.250;2023-07-30T09:39:25;100322.66;;;20.01;100.00
1736;BME280;865;53.672;10.250;2023-07-30T09:41:59;100332.81;;;19.94;100.00
1736;BME280;865;53.672;10.250;2023-07-30T09:44:26;100324.59;;;20.12;100.00
1736;BME280;865;53.672;10.250;2023-07-30T09:46:53;100325.66;;;20.22;100.00
1736;BME280;865;53.672;10.250;2023-07-30T09:49:20;100328.38;;;20.08;100.00
1736;BME280;865;53.672;10.250;2023-07-30T09:51:50;100326.19;;;20.14;100.00
1736;BME280;865;53.672;10.250;2023-07-30T09:54:18;100331.75;;;19.97;100.00
1736;BME280;865;53.672;10.250;2023-07-30T09:56:44;100325.06;;;19.91;100.00
1736;BME280;865;53.672;10.250;2023-07-30T09:59:11;100321.59;;;20.03;100.00
1736;BME280;865;53.672;10.250;2023-07-30T10:01:46;100327.22;;;20.52;100.00
1736;BME280;865;53.672;10.250;2023-07-30T10:04:19;100332.88;;;20.60;100.00
1736;BME280;865;53.672;10.250;2023-07-30T10:06:50;100332.50;;;20.39;100.00
1736;BME280;865;53.672;10.250;2023-07-30T10:09:19;100344.34;;;20.20;100.00
1736;BME280;865;53.672;10.250;2023-07-30T10:11:49;100335.84;;;20.15;100.00
1736;BME280;865;53.672;10.250;2023-07-30T10:14:22;100338.25;;;20.06;100.00
1736;BME280;865;53.672;10.250;2023-07-30T10:16:59;100351.34;;;19.94;100.00
1736;BME280;865;53.672;10.250;2023-07-30T10:19:26;100349.97;;;20.01;100.00
1736;BME280;865;53.672;10.250;2023-07-30T10:24:41;100360.22;;;20.20;100.00
1736;BME280;865;53.672;10.250;2023-07-30T10:27:23;100361.06;;;20.21;100.00
1736;BME280;865;53.672;10.250;2023-07-30T10:30:14;100358.22;;;20.24;100.00
1736;BME280;865;53.672;10.250;2023-07-30T10:32:57;100355.38;;;20.40;100.00
1736;BME280;865;53.672;10.250;2023-07-30T10:35:45;100365.66;;;20.32;100.00
1736;BME280;865;53.672;10.250;2023-07-30T10:38:20;100378.50;;;20.11;100.00
1736;BME280;865;53.672;10.250;2023-07-30T10:41:12;100373.00;;;19.87;100.00
1736;BME280;865;53.672;10.250;2023-07-30T10:43:45;100378.44;;;19.98;100.00
1736;BME280;865;53.672;10.250;2023-07-30T10:46:14;100380.91;;;20.01;100.00
1736;BME280;865;53.672;10.250;2023-07-30T10:48:43;100379.47;;;20.10;100.00
1736;BME280;865;53.672;10.250;2023-07-30T10:51:15;100377.50;;;20.26;100.00
1736;BME280;865;53.672;10.250;2023-07-30T10:53:43;100381.44;;;20.33;100.00
1736;BME280;865;53.672;10.250;2023-07-30T10:56:10;100385.56;;;20.37;100.00
1736;BME280;865;53.672;10.250;2023-07-30T10:58:37;100386.50;;;20.23;100.00
1736;BME280;865;53.672;10.250;2023-07-30T11:01:07;100391.81;;;20.23;100.00
1736;BME280;865;53.672;10.250;2023-07-30T11:03:35;100395.31;;;20.24;100.00
1736;BME280;865;53.672;10.250;2023-07-30T11:06:02;100388.00;;;20.27;100.00
1736;BME280;865;53.672;10.250;2023-07-30T11:08:40;100391.50;;;20.28;100.00
1736;BME280;865;53.672;10.250;2023-07-30T11:11:10;100392.25;;;20.30;100.00
1736;BME280;865;53.672;10.250;2023-07-30T11:13:38;100391.88;;;20.49;100.00
1736;BME280;865;53.672;10.250;2023-07-30T11:16:06;100387.16;;;20.27;100.00
1736;BME280;865;53.672;10.250;2023-07-30T11:18:39;100379.75;;;20.32;100.00
1736;BME280;865;53.672;10.250;2023-07-30T11:21:07;100382.34;;;20.46;100.00
1736;BME280;865;53.672;10.250;2023-07-30T11:23:35;100374.53;;;20.31;100.00
1736;BME280;865;53.672;10.250;2023-07-30T11:26:03;100383.31;;;20.18;100.00
1736;BME280;865;53.672;10.250;2023-07-30T11:28:32;100377.16;;;20.18;100.00
1736;BME280;865;53.672;10.250;2023-07-30T11:31:05;100383.53;;;20.28;100.00
1736;BME280;865;53.672;10.250;2023-07-30T11:33:34;100394.06;;;20.42;100.00
1736;BME280;865;53.672;10.250;2023-07-30T11:36:02;100385.25;;;20.69;100.00
1736;BME280;865;53.672;10.250;2023-07-30T11:38:30;100385.38;;;20.80;100.00
1736;BME280;865;53.672;10.250;2023-07-30T11:40:57;100390.06;;;20.89;100.00
1736;BME280;865;53.672;10.250;2023-07-30T11:43:24;100385.19;;;20.83;100.00
1736;BME280;865;53.672;10.250;2023-07-30T11:46:12;100387.31;;;21.04;100.00
1736;BME280;865;53.672;10.250;2023-07-30T11:48:41;100377.72;;;20.76;100.00
1736;BME280;865;53.672;10.250;2023-07-30T11:51:27;100381.75;;;20.56;100.00
1736;BME280;865;53.672;10.250;2023-07-30T11:53:59;100379.19;;;20.54;100.00
1736;BME280;865;53.672;10.250;2023-07-30T11:56:28;100384.63;;;20.78;100.00
1736;BME280;865;53.672;10.250;2023-07-30T11:58:57;100382.00;;;21.04;100.00
1736;BME280;865;53.672;10.250;2023-07-30T12:01:25;100378.16;;;21.21;100.00
1736;BME280;865;53.672;10.250;2023-07-30T12:03:59;100379.66;;;21.25;100.00
1736;BME280;865;53.672;10.250;2023-07-30T12:06:44;100372.75;;;21.35;100.00
1736;BME280;865;53.672;10.250;2023-07-30T12:09:12;100372.13;;;21.31;100.00
1736;BME280;865;53.672;10.250;2023-07-30T12:14:26;100367.56;;;21.33;100.00
1736;BME280;865;53.672;10.250;2023-07-30T12:17:00;100371.66;;;21.63;100.00
1736;BME280;865;53.672;10.250;2023-07-30T12:19:27;100378.41;;;21.43;100.00
1736;BME280;865;53.672;10.250;2023-07-30T12:21:54;100372.78;;;21.48;100.00
1736;BME280;865;53.672;10.250;2023-07-30T12:24:20;100373.06;;;21.56;100.00
1736;BME280;865;53.672;10.250;2023-07-30T12:26:48;100368.34;;;21.72;100.00
1736;BME280;865;53.672;10.250;2023-07-30T12:29:15;100366.84;;;21.81;100.00
1736;BME280;865;53.672;10.250;2023-07-30T12:31:41;100365.47;;;21.75;100.00
1736;BME280;865;53.672;10.250;2023-07-30T12:34:08;100356.69;;;21.99;100.00
1736;BME280;865;53.672;10.250;2023-07-30T12:36:35;100359.88;;;21.67;100.00
1736;BME280;865;53.672;10.250;2023-07-30T12:39:02;100354.41;;;21.45;100.00
1736;BME280;865;53.672;10.250;2023-07-30T12:41:28;100354.91;;;21.50;100.00
1736;BME280;865;53.672;10.250;2023-07-30T12:43:55;100348.00;;;21.47;100.00
1736;BME280;865;53.672;10.250;2023-07-30T12:46:25;100348.94;;;21.59;100.00
1736;BME280;865;53.672;10.250;2023-07-30T12:48:56;100344.91;;;21.90;100.00
1736;BME280;865;53.672;10.250;2023-07-30T12:51:23;100338.69;;;22.02;100.00
1736;BME280;865;53.672;10.250;2023-07-30T12:53:49;100339.69;;;22.25;100.00
1736;BME280;865;53.672;10.250;2023-07-30T12:56:15;100339.59;;;22.14;100.00
1736;BME280;865;53.672;10.250;2023-07-30T12:58:42;100328.63;;;22.19;100.00
1736;BME280;865;53.672;10.250;2023-07-30T13:01:09;100340.78;;;22.10;100.00
1736;BME280;865;53.672;10.250;2023-07-30T13:03:35;100334.13;;;21.80;100.00
1736;BME280;865;53.672;10.250;2023-07-30T13:06:03;100336.16;;;21.40;100.00
1736;BME280;865;53.672;10.250;2023-07-30T13:08:29;100339.88;;;21.37;100.00
1736;BME280;865;53.672;10.250;2023-07-30T13:10:56;100328.94;;;21.16;100.00
1736;BME280;865;53.672;10.250;2023-07-30T13:13:22;100335.00;;;21.06;100.00